createdAt,value
2018-04-13T00:02:29.139Z,43.90
2018-04-13T00:04:59.894Z,43.90
2018-04-13T00:07:30.876Z,43.90
2018-04-13T00:10:02.709Z,43.90
2018-04-13T00:12:33.845Z,43.90
2018-04-13T00:15:04.925Z,43.90
2018-04-13T00:17:36.612Z,43.90
2018-04-13T00:20:07.820Z,43.80
2018-04-13T00:22:39.009Z,43.80
2018-04-13T00:25:10.163Z,43.80
2018-04-13T00:27:41.238Z,43.80
2018-04-13T00:30:12.073Z,43.80
2018-04-13T00:32:43.103Z,43.80
2018-04-13T00:35:14.055Z,43.80
2018-04-13T00:37:45.198Z,43.80
2018-04-13T00:40:16.111Z,43.70
2018-04-13T00:42:46.799Z,43.70
2018-04-13T00:45:18.035Z,43.60
2018-04-13T00:47:49.637Z,43.60
2018-04-13T00:50:20.990Z,43.50
2018-04-13T00:53:01.659Z,43.50
2018-04-13T00:55:32.219Z,43.50
2018-04-13T00:58:03.598Z,43.50
2018-04-13T01:00:34.456Z,43.50
2018-04-13T01:03:05.355Z,43.40
2018-04-13T01:05:36.207Z,43.50
2018-04-13T01:08:07.263Z,43.40
2018-04-13T01:10:38.363Z,43.40
2018-04-13T01:13:09.399Z,43.40
2018-04-13T01:15:41.361Z,43.90
2018-04-13T01:18:12.132Z,43.30
2018-04-13T01:20:43.348Z,43.20
2018-04-13T01:23:14.375Z,43.30
2018-04-13T01:25:45.929Z,42.80
2018-04-13T01:28:18.724Z,42.80
2018-04-13T01:30:50.585Z,43.20
2018-04-13T01:33:21.673Z,43.20
2018-04-13T01:35:52.598Z,43.10
2018-04-13T01:38:23.277Z,43.10
2018-04-13T01:40:54.200Z,43.10
2018-04-13T01:43:25.361Z,43.10
2018-04-13T01:45:56.479Z,43.00
2018-04-13T01:48:27.384Z,42.90
2018-04-13T01:50:58.447Z,42.90
2018-04-13T01:53:29.426Z,42.90
2018-04-13T01:56:00.639Z,42.80
2018-04-13T01:58:31.913Z,42.80
2018-04-13T02:01:03.119Z,43.30
2018-04-13T02:03:33.962Z,42.70
2018-04-13T02:06:05.092Z,42.70
2018-04-13T02:08:35.889Z,42.70
2018-04-13T02:11:07.151Z,42.70
2018-04-13T02:13:37.819Z,42.60
2018-04-13T02:16:09.082Z,42.60
2018-04-13T02:18:40.241Z,42.60
2018-04-13T02:21:11.616Z,42.60
2018-04-13T02:23:42.797Z,42.60
2018-04-13T02:26:13.463Z,42.60
2018-04-13T02:28:44.286Z,42.50
2018-04-13T02:31:15.284Z,43.10
2018-04-13T02:33:46.104Z,42.50
2018-04-13T02:36:17.427Z,42.50
2018-04-13T02:38:47.914Z,42.40
2018-04-13T02:41:19.073Z,42.40
2018-04-13T02:43:50.506Z,42.40
2018-04-13T02:46:21.666Z,42.30
2018-04-13T02:48:52.469Z,42.30
2018-04-13T02:51:23.818Z,42.30
2018-04-13T02:53:54.778Z,42.20
2018-04-13T02:56:25.945Z,42.20
2018-04-13T02:58:57.036Z,42.10
2018-04-13T03:01:28.211Z,42.10
2018-04-13T03:03:59.209Z,42.10
2018-04-13T03:06:30.426Z,42.10
2018-04-13T03:09:01.932Z,42.30
2018-04-13T03:11:33.061Z,42.00
2018-04-13T03:14:04.371Z,41.90
2018-04-13T03:16:35.513Z,41.90
2018-04-13T03:19:06.449Z,41.80
2018-04-13T03:21:38.953Z,41.80
2018-04-13T03:24:10.078Z,41.80
2018-04-13T03:26:41.950Z,41.70
2018-04-13T03:29:12.974Z,41.70
2018-04-13T03:31:43.865Z,41.70
2018-04-13T03:34:14.756Z,41.60
2018-04-13T03:36:46.095Z,41.60
2018-04-13T03:39:17.269Z,41.60
2018-04-13T03:41:48.221Z,41.50
2018-04-13T03:44:19.228Z,41.50
2018-04-13T03:46:49.994Z,41.50
2018-04-13T03:49:20.865Z,41.40
2018-04-13T03:51:52.129Z,41.40
2018-04-13T03:54:23.224Z,41.40
2018-04-13T03:56:54.316Z,41.30
2018-04-13T03:59:26.082Z,41.80
2018-04-13T04:01:57.500Z,41.20
2018-04-13T04:04:30.243Z,41.20
2018-04-13T04:07:01.304Z,41.20
2018-04-13T04:09:32.418Z,41.10
2018-04-13T04:12:03.152Z,41.10
2018-04-13T04:14:34.055Z,41.00
2018-04-13T04:17:05.365Z,41.00
2018-04-13T04:19:46.237Z,40.90
2018-04-13T04:22:27.302Z,40.90
2018-04-13T04:25:08.237Z,40.90
2018-04-13T04:27:39.359Z,40.80
2018-04-13T04:30:11.315Z,40.80
2018-04-13T04:32:42.073Z,40.70
2018-04-13T04:35:13.928Z,40.70
2018-04-13T04:37:45.053Z,40.70
2018-04-13T04:40:16.721Z,40.70
2018-04-13T04:42:48.858Z,40.70
2018-04-13T04:45:21.554Z,40.70
2018-04-13T04:47:52.508Z,40.70
2018-04-13T04:50:23.848Z,40.70
2018-04-13T04:52:55.320Z,40.60
2018-04-13T04:55:26.416Z,40.60
2018-04-13T04:57:57.494Z,40.60
2018-04-13T05:00:28.766Z,40.60
2018-04-13T05:02:59.623Z,40.50
2018-04-13T05:05:30.800Z,40.50
2018-04-13T05:08:02.236Z,40.50
2018-04-13T05:10:33.334Z,40.50
2018-04-13T05:13:04.381Z,40.50
2018-04-13T05:15:35.413Z,40.50
2018-04-13T05:18:06.355Z,40.50
2018-04-13T05:20:37.389Z,40.50
2018-04-13T05:23:08.756Z,40.40
2018-04-13T05:25:40.005Z,40.50
2018-04-13T05:28:11.589Z,40.50
2018-04-13T05:30:42.665Z,40.50
2018-04-13T05:33:13.688Z,40.40
2018-04-13T05:35:44.877Z,40.80
2018-04-13T05:38:16.365Z,40.90
2018-04-13T05:40:47.356Z,41.30
2018-04-13T05:43:18.824Z,42.10
2018-04-13T05:45:50.267Z,42.00
2018-04-13T05:48:21.721Z,41.60
2018-04-13T05:50:52.720Z,41.70
2018-04-13T05:53:23.668Z,42.30
2018-04-13T05:55:54.832Z,42.70
2018-04-13T05:58:25.620Z,42.90
2018-04-13T06:00:57.901Z,42.90
2018-04-13T06:03:29.076Z,42.90
2018-04-13T06:06:00.392Z,42.90
2018-04-13T06:08:31.282Z,42.90
2018-04-13T06:11:02.723Z,42.80
2018-04-13T06:13:34.124Z,42.70
2018-04-13T06:16:06.121Z,42.40
2018-04-13T06:18:37.142Z,42.40
2018-04-13T06:21:08.707Z,42.30
2018-04-13T06:23:40.240Z,42.10
2018-04-13T06:26:11.278Z,42.00
2018-04-13T06:28:42.866Z,41.90
2018-04-13T06:31:15.461Z,41.90
2018-04-13T06:33:47.396Z,41.80
2018-04-13T06:36:19.742Z,41.80
2018-04-13T06:38:52.519Z,41.70
2018-04-13T06:41:25.081Z,41.60
2018-04-13T06:43:58.162Z,41.70
2018-04-13T06:46:29.629Z,41.70
2018-04-13T06:49:01.830Z,41.70
2018-04-13T06:51:33.952Z,41.60
2018-04-13T06:54:05.310Z,41.60
2018-04-13T06:56:37.377Z,41.60
2018-04-13T06:59:09.475Z,41.60
2018-04-13T07:01:40.947Z,41.50
2018-04-13T07:04:12.395Z,41.60
2018-04-13T07:06:44.146Z,41.30
2018-04-13T07:09:17.386Z,41.20
2018-04-13T07:11:49.551Z,41.10
2018-04-13T07:14:21.815Z,41.10
2018-04-13T07:16:53.124Z,41.10
2018-04-13T07:19:26.278Z,41.30
2018-04-13T07:21:59.401Z,41.20
2018-04-13T07:24:32.153Z,41.50
2018-04-13T07:27:03.285Z,41.80
2018-04-13T07:29:35.214Z,42.20
2018-04-13T07:32:07.507Z,42.50
2018-04-13T07:34:40.005Z,42.90
2018-04-13T07:37:12.186Z,42.90
2018-04-13T07:39:44.195Z,42.90
2018-04-13T07:42:17.935Z,43.10
2018-04-13T07:44:50.589Z,43.00
2018-04-13T07:47:21.798Z,42.90
2018-04-13T07:49:53.758Z,42.90
2018-04-13T07:52:25.947Z,43.00
2018-04-13T07:54:57.680Z,43.10
2018-04-13T07:57:28.810Z,43.00
2018-04-13T08:00:00.261Z,43.10
2018-04-13T08:02:32.420Z,43.00
2018-04-13T08:05:03.727Z,43.20
2018-04-13T08:07:35.987Z,43.10
2018-04-13T08:10:08.843Z,43.00
2018-04-13T08:12:40.419Z,43.00
2018-04-13T08:15:11.848Z,42.90
2018-04-13T08:17:45.119Z,42.90
2018-04-13T08:20:16.800Z,42.80
2018-04-13T08:22:49.165Z,42.80
2018-04-13T08:25:20.614Z,42.60
2018-04-13T08:27:51.981Z,42.70
2018-04-13T08:30:23.417Z,42.70
2018-04-13T08:32:54.717Z,42.60
2018-04-13T08:35:26.854Z,42.50
2018-04-13T08:37:59.364Z,42.50
2018-04-13T08:40:31.033Z,42.50
2018-04-13T08:43:06.133Z,43.10
2018-04-13T08:45:37.348Z,42.50
2018-04-13T08:48:08.178Z,42.50
2018-04-13T08:50:39.473Z,42.50
2018-04-13T08:53:10.810Z,42.30
2018-04-13T08:55:42.642Z,41.80
2018-04-13T08:58:13.986Z,41.70
2018-04-13T09:00:44.604Z,41.60
2018-04-13T09:03:15.839Z,41.50
2018-04-13T09:05:47.201Z,41.40
2018-04-13T09:08:17.937Z,41.30
2018-04-13T09:10:50.545Z,41.20
2018-04-13T09:13:21.865Z,41.10
2018-04-13T09:15:53.156Z,41.40
2018-04-13T09:18:25.395Z,42.80
2018-04-13T09:20:57.098Z,42.50
2018-04-13T09:23:28.050Z,42.50
2018-04-13T09:25:59.320Z,42.40
2018-04-13T09:28:30.642Z,42.50
2018-04-13T09:31:01.783Z,42.40
2018-04-13T09:33:32.632Z,42.40
2018-04-13T09:36:03.924Z,42.60
2018-04-13T09:38:34.956Z,42.60
2018-04-13T09:41:06.169Z,42.40
2018-04-13T09:43:37.019Z,42.40
2018-04-13T09:46:07.620Z,43.40
2018-04-13T09:48:38.720Z,41.80
2018-04-13T09:51:09.793Z,41.80
2018-04-13T09:53:41.137Z,41.40
2018-04-13T09:56:13.200Z,41.20
2018-04-13T09:58:45.930Z,41.00
2018-04-13T10:01:17.592Z,40.90
2018-04-13T10:03:51.655Z,40.90
2018-04-13T10:06:22.476Z,41.30
2018-04-13T10:08:53.965Z,41.10
2018-04-13T10:11:25.014Z,41.20
2018-04-13T10:13:56.440Z,41.10
2018-04-13T10:16:27.170Z,41.30
2018-04-13T10:18:58.920Z,41.30
2018-04-13T10:21:30.278Z,41.70
2018-04-13T10:24:01.140Z,41.20
2018-04-13T10:26:32.722Z,41.10
2018-04-13T10:29:03.811Z,41.10
2018-04-13T10:31:35.091Z,41.00
2018-04-13T10:34:05.960Z,40.70
2018-04-13T10:36:37.369Z,40.50
2018-04-13T10:39:08.529Z,40.30
2018-04-13T10:41:39.447Z,39.60
2018-04-13T10:44:10.290Z,39.40
